sensor_id;sensor_type;location;lat;lon;timestamp;temperature;humidity
18888;DHT22;9576;47.792;9.628;2023-05-29T00:01:08;13.30;99.90
18888;DHT22;9576;47.792;9.628;2023-05-29T00:04:11;13.30;99.90
18888;DHT22;9576;47.792;9.628;2023-05-29T00:07:13;13.10;99.90
18888;DHT22;9576;47.792;9.628;2023-05-29T00:10:15;13.00;99.90
18888;DHT22;9576;47.792;9.628;2023-05-29T00:13:17;13.00;99.90
18888;DHT22;9576;47.792;9.628;2023-05-29T00:16:20;13.10;99.90
18888;DHT22;9576;47.792;9.628;2023-05-29T00:19:23;13.00;99.90
18888;DHT22;9576;47.792;9.628;2023-05-29T00:22:26;13.00;99.90
18888;DHT22;9576;47.792;9.628;2023-05-29T00:25:28;12.90;99.90
18888;DHT22;9576;47.792;9.628;2023-05-29T00:28:29;12.90;99.90
18888;DHT22;9576;47.792;9.628;2023-05-29T00:31:33;12.90;99.90
18888;DHT22;9576;47.792;9.628;2023-05-29T00:34:36;12.80;99.90
18888;DHT22;9576;47.792;9.628;2023-05-29T00:37:38;12.70;99.90
18888;DHT22;9576;47.792;9.628;2023-05-29T00:40:40;12.70;99.90
18888;DHT22;9576;47.792;9.628;2023-05-29T00:43:42;12.60;99.90
18888;DHT22;9576;47.792;9.628;2023-05-29T00:46:46;12.50;99.90
18888;DHT22;9576;47.792;9.628;2023-05-29T00:49:48;12.50;99.90
18888;DHT22;9576;47.792;9.628;2023-05-29T00:52:51;12.50;99.90
18888;DHT22;9576;47.792;9.628;2023-05-29T00:55:53;12.50;99.90
18888;DHT22;9576;47.792;9.628;2023-05-29T00:58:55;12.40;99.90
18888;DHT22;9576;47.792;9.628;2023-05-29T01:01:59;12.40;99.90
18888;DHT22;9576;47.792;9.628;2023-05-29T01:05:03;12.30;99.90
18888;DHT22;9576;47.792;9.628;2023-05-29T01:08:06;12.30;99.90
18888;DHT22;9576;47.792;9.628;2023-05-29T01:11:15;12.30;99.90
18888;DHT22;9576;47.792;9.628;2023-05-29T01:14:32;12.40;99.90
18888;DHT22;9576;47.792;9.628;2023-05-29T01:17:43;12.30;99.90
18888;DHT22;9576;47.792;9.628;2023-05-29T01:20:52;12.30;99.90
18888;DHT22;9576;47.792;9.628;2023-05-29T01:24:02;12.30;99.90
18888;DHT22;9576;47.792;9.628;2023-05-29T01:27:07;12.30;99.90
18888;DHT22;9576;47.792;9.628;2023-05-29T01:30:11;12.30;99.90
18888;DHT22;9576;47.792;9.628;2023-05-29T01:33:15;12.20;99.90
18888;DHT22;9576;47.792;9.628;2023-05-29T01:36:17;12.20;99.90
18888;DHT22;9576;47.792;9.628;2023-05-29T01:39:20;12.20;99.90
18888;DHT22;9576;47.792;9.628;2023-05-29T01:42:24;12.00;99.90
18888;DHT22;9576;47.792;9.628;2023-05-29T01:45:27;11.90;99.90
18888;DHT22;9576;47.792;9.628;2023-05-29T01:48:29;11.80;99.90
18888;DHT22;9576;47.792;9.628;2023-05-29T01:51:31;11.70;99.90
18888;DHT22;9576;47.792;9.628;2023-05-29T01:54:33;11.70;99.90
18888;DHT22;9576;47.792;9.628;2023-05-29T01:57:37;11.50;99.90
18888;DHT22;9576;47.792;9.628;2023-05-29T02:00:39;11.50;99.90
18888;DHT22;9576;47.792;9.628;2023-05-29T02:03:42;11.50;99.90
18888;DHT22;9576;47.792;9.628;2023-05-29T02:06:44;11.50;99.90
18888;DHT22;9576;47.792;9.628;2023-05-29T02:09:46;11.40;99.90
18888;DHT22;9576;47.792;9.628;2023-05-29T02:12:49;11.40;99.90
18888;DHT22;9576;47.792;9.628;2023-05-29T02:15:51;11.40;99.90
18888;DHT22;9576;47.792;9.628;2023-05-29T02:18:53;11.30;99.90
18888;DHT22;9576;47.792;9.628;2023-05-29T02:21:55;11.30;99.90
18888;DHT22;9576;47.792;9.628;2023-05-29T02:24:57;11.30;99.90
18888;DHT22;9576;47.792;9.628;2023-05-29T02:28:00;11.30;99.90
18888;DHT22;9576;47.792;9.628;2023-05-29T02:31:02;11.30;99.90
18888;DHT22;9576;47.792;9.628;2023-05-29T02:34:04;11.30;99.90
18888;DHT22;9576;47.792;9.628;2023-05-29T02:37:06;11.20;99.90
18888;DHT22;9576;47.792;9.628;2023-05-29T02:40:09;11.20;99.90
18888;DHT22;9576;47.792;9.628;2023-05-29T02:43:13;11.20;99.90
18888;DHT22;9576;47.792;9.628;2023-05-29T02:46:16;11.20;99.90
18888;DHT22;9576;47.792;9.628;2023-05-29T02:49:17;11.10;99.90
18888;DHT22;9576;47.792;9.628;2023-05-29T02:52:19;11.10;99.90
18888;DHT22;9576;47.792;9.628;2023-05-29T02:55:23;11.10;99.90
18888;DHT22;9576;47.792;9.628;2023-05-29T02:58:26;11.10;99.90
18888;DHT22;9576;47.792;9.628;2023-05-29T03:01:29;11.10;99.90
18888;DHT22;9576;47.792;9.628;2023-05-29T03:04:31;11.20;99.90
18888;DHT22;9576;47.792;9.628;2023-05-29T03:07:33;11.20;99.90
18888;DHT22;9576;47.792;9.628;2023-05-29T03:10:35;11.10;99.90
18888;DHT22;9576;47.792;9.628;2023-05-29T03:13:39;11.10;99.90
18888;DHT22;9576;47.792;9.628;2023-05-29T03:16:41;11.10;99.90
18888;DHT22;9576;47.792;9.628;2023-05-29T03:19:43;11.10;99.90
18888;DHT22;9576;47.792;9.628;2023-05-29T03:22:44;11.10;99.90
18888;DHT22;9576;47.792;9.628;2023-05-29T03:25:46;11.10;99.90
18888;DHT22;9576;47.792;9.628;2023-05-29T03:28:50;11.10;99.90
18888;DHT22;9576;47.792;9.628;2023-05-29T03:31:51;11.10;99.90
18888;DHT22;9576;47.792;9.628;2023-05-29T03:34:53;11.10;99.90
18888;DHT22;9576;47.792;9.628;2023-05-29T03:37:55;11.10;99.90
18888;DHT22;9576;47.792;9.628;2023-05-29T03:40:57;11.00;99.90
18888;DHT22;9576;47.792;9.628;2023-05-29T03:44:01;11.00;99.90
18888;DHT22;9576;47.792;9.628;2023-05-29T03:47:03;11.00;99.90
18888;DHT22;9576;47.792;9.628;2023-05-29T03:50:05;10.90;99.90
18888;DHT22;9576;47.792;9.628;2023-05-29T03:53:08;10.90;99.90
18888;DHT22;9576;47.792;9.628;2023-05-29T03:56:10;10.80;99.90
18888;DHT22;9576;47.792;9.628;2023-05-29T03:59:13;10.80;99.90
18888;DHT22;9576;47.792;9.628;2023-05-29T04:02:15;10.80;99.90
18888;DHT22;9576;47.792;9.628;2023-05-29T04:05:17;10.90;99.90
18888;DHT22;9576;47.792;9.628;2023-05-29T04:08:19;11.00;99.90
18888;DHT22;9576;47.792;9.628;2023-05-29T04:11:21;11.10;99.90
18888;DHT22;9576;47.792;9.628;2023-05-29T04:14:24;11.00;99.90
18888;DHT22;9576;47.792;9.628;2023-05-29T04:17:26;11.00;99.90
18888;DHT22;9576;47.792;9.628;2023-05-29T04:20:28;11.00;99.90
18888;DHT22;9576;47.792;9.628;2023-05-29T04:23:30;10.90;99.90
18888;DHT22;9576;47.792;9.628;2023-05-29T04:26:32;11.00;99.90
18888;DHT22;9576;47.792;9.628;2023-05-29T04:29:35;11.00;99.90
18888;DHT22;9576;47.792;9.628;2023-05-29T04:32:41;11.10;99.90
18888;DHT22;9576;47.792;9.628;2023-05-29T04:35:43;11.10;99.90
18888;DHT22;9576;47.792;9.628;2023-05-29T04:38:44;11.10;99.90
18888;DHT22;9576;47.792;9.628;2023-05-29T04:41:48;11.10;99.90
18888;DHT22;9576;47.792;9.628;2023-05-29T04:44:51;11.20;99.90
18888;DHT22;9576;47.792;9.628;2023-05-29T04:47:54;11.30;99.90
18888;DHT22;9576;47.792;9.628;2023-05-29T04:50:56;11.30;99.90
18888;DHT22;9576;47.792;9.628;2023-05-29T04:53:58;11.40;99.90
18888;DHT22;9576;47.792;9.628;2023-05-29T04:56:59;11.50;99.90
18888;DHT22;9576;47.792;9.628;2023-05-29T05:00:03;11.50;99.90
18888;DHT22;9576;47.792;9.628;2023-05-29T05:03:07;11.50;99.90
18888;DHT22;9576;47.792;9.628;2023-05-29T05:06:11;11.60;99.90
18888;DHT22;9576;47.792;9.628;2023-05-29T05:09:13;11.70;99.90
18888;DHT22;9576;47.792;9.628;2023-05-29T05:12:15;11.80;99.90
18888;DHT22;9576;47.792;9.628;2023-05-29T05:15:18;11.80;99.90
18888;DHT22;9576;47.792;9.628;2023-05-29T05:18:20;11.90;99.90
18888;DHT22;9576;47.792;9.628;2023-05-29T05:21:22;12.10;99.90
18888;DHT22;9576;47.792;9.628;2023-05-29T05:24:24;12.10;99.90
18888;DHT22;9576;47.792;9.628;2023-05-29T05:27:26;12.20;99.90
18888;DHT22;9576;47.792;9.628;2023-05-29T05:30:29;12.30;99.90
18888;DHT22;9576;47.792;9.628;2023-05-29T05:33:31;12.30;99.90
18888;DHT22;9576;47.792;9.628;2023-05-29T05:36:33;12.40;99.90
18888;DHT22;9576;47.792;9.628;2023-05-29T05:39:35;12.50;99.90
18888;DHT22;9576;47.792;9.628;2023-05-29T05:42:37;12.50;99.90
18888;DHT22;9576;47.792;9.628;2023-05-29T05:45:40;12.50;99.90
18888;DHT22;9576;47.792;9.628;2023-05-29T05:48:43;12.60;99.90
18888;DHT22;9576;47.792;9.628;2023-05-29T05:51:45;12.60;99.90
18888;DHT22;9576;47.792;9.628;2023-05-29T05:54:47;12.60;99.90
18888;DHT22;9576;47.792;9.628;2023-05-29T05:57:49;12.60;99.90
18888;DHT22;9576;47.792;9.628;2023-05-29T06:00:52;12.70;99.90
18888;DHT22;9576;47.792;9.628;2023-05-29T06:03:54;12.70;99.90
18888;DHT22;9576;47.792;9.628;2023-05-29T06:06:56;12.90;99.90
18888;DHT22;9576;47.792;9.628;2023-05-29T06:09:58;12.90;99.90
18888;DHT22;9576;47.792;9.628;2023-05-29T06:12:59;13.00;99.90
18888;DHT22;9576;47.792;9.628;2023-05-29T06:16:04;13.10;99.90
18888;DHT22;9576;47.792;9.628;2023-05-29T06:19:06;13.20;99.90
18888;DHT22;9576;47.792;9.628;2023-05-29T06:22:08;13.30;99.90
18888;DHT22;9576;47.792;9.628;2023-05-29T06:25:10;13.40;99.90
18888;DHT22;9576;47.792;9.628;2023-05-29T06:28:12;13.40;99.90
18888;DHT22;9576;47.792;9.628;2023-05-29T06:31:15;13.60;99.90
18888;DHT22;9576;47.792;9.628;2023-05-29T06:34:17;13.60;99.90
18888;DHT22;9576;47.792;9.628;2023-05-29T06:37:19;13.70;99.90
18888;DHT22;9576;47.792;9.628;2023-05-29T06:40:21;13.80;99.90
18888;DHT22;9576;47.792;9.628;2023-05-29T06:43:23;13.90;99.90
18888;DHT22;9576;47.792;9.628;2023-05-29T06:46:27;13.90;99.90
18888;DHT22;9576;47.792;9.628;2023-05-29T06:49:29;14.00;99.90
18888;DHT22;9576;47.792;9.628;2023-05-29T06:52:31;14.10;99.90
18888;DHT22;9576;47.792;9.628;2023-05-29T06:55:33;14.20;99.90
18888;DHT22;9576;47.792;9.628;2023-05-29T06:58:35;14.30;99.90
18888;DHT22;9576;47.792;9.628;2023-05-29T07:01:38;14.40;99.90
18888;DHT22;9576;47.792;9.628;2023-05-29T07:04:40;14.60;99.90
18888;DHT22;9576;47.792;9.628;2023-05-29T07:07:42;14.70;99.90
18888;DHT22;9576;47.792;9.628;2023-05-29T07:10:44;14.80;99.90
18888;DHT22;9576;47.792;9.628;2023-05-29T07:13:46;14.90;99.90
18888;DHT22;9576;47.792;9.628;2023-05-29T07:16:49;15.10;99.90
18888;DHT22;9576;47.792;9.628;2023-05-29T07:19:51;15.20;99.90
18888;DHT22;9576;47.792;9.628;2023-05-29T07:22:54;15.30;99.90
18888;DHT22;9576;47.792;9.628;2023-05-29T07:25:56;15.40;99.90
18888;DHT22;9576;47.792;9.628;2023-05-29T07:28:58;15.60;99.90
18888;DHT22;9576;47.792;9.628;2023-05-29T07:32:01;15.70;99.90
18888;DHT22;9576;47.792;9.628;2023-05-29T07:35:04;15.80;99.90
18888;DHT22;9576;47.792;9.628;2023-05-29T07:38:07;16.00;99.90
18888;DHT22;9576;47.792;9.628;2023-05-29T07:41:09;16.10;99.90
18888;DHT22;9576;47.792;9.628;2023-05-29T07:44:11;16.30;99.90
18888;DHT22;9576;47.792;9.628;2023-05-29T07:47:15;16.40;99.90
18888;DHT22;9576;47.792;9.628;2023-05-29T07:50:17;16.60;99.90
18888;DHT22;9576;47.792;9.628;2023-05-29T07:53:20;16.80;99.90
18888;DHT22;9576;47.792;9.628;2023-05-29T07:56:22;16.90;99.90
18888;DHT22;9576;47.792;9.628;2023-05-29T07:59:26;17.10;99.90
18888;DHT22;9576;47.792;9.628;2023-05-29T08:02:29;17.20;99.90
18888;DHT22;9576;47.792;9.628;2023-05-29T08:05:31;17.40;99.90
18888;DHT22;9576;47.792;9.628;2023-05-29T08:08:33;17.40;99.90
18888;DHT22;9576;47.792;9.628;2023-05-29T08:11:35;17.50;99.90
18888;DHT22;9576;47.792;9.628;2023-05-29T08:14:37;17.70;99.90
18888;DHT22;9576;47.792;9.628;2023-05-29T08:17:40;17.80;99.90
18888;DHT22;9576;47.792;9.628;2023-05-29T08:20:42;17.90;99.90
18888;DHT22;9576;47.792;9.628;2023-05-29T08:23:45;18.10;99.90
18888;DHT22;9576;47.792;9.628;2023-05-29T08:26:47;18.20;99.90
18888;DHT22;9576;47.792;9.628;2023-05-29T08:29:49;18.40;99.90
18888;DHT22;9576;47.792;9.628;2023-05-29T08:32:52;18.60;99.90
18888;DHT22;9576;47.792;9.628;2023-05-29T08:35:54;18.80;99.90
18888;DHT22;9576;47.792;9.628;2023-05-29T08:38:56;18.90;99.90
18888;DHT22;9576;47.792;9.628;2023-05-29T08:42:01;19.00;99.90
18888;DHT22;9576;47.792;9.628;2023-05-29T08:45:04;19.20;99.90
18888;DHT22;9576;47.792;9.628;2023-05-29T08:48:09;19.30;99.90
18888;DHT22;9576;47.792;9.628;2023-05-29T08:51:11;19.40;99.90
18888;DHT22;9576;47.792;9.628;2023-05-29T08:54:14;19.60;99.90
18888;DHT22;9576;47.792;9.628;2023-05-29T08:57:17;19.80;99.90
18888;DHT22;9576;47.792;9.628;2023-05-29T09:00:19;19.90;99.90
18888;DHT22;9576;47.792;9.628;2023-05-29T09:03:24;20.10;99.90
18888;DHT22;9576;47.792;9.628;2023-05-29T09:06:26;20.30;99.90
18888;DHT22;9576;47.792;9.628;2023-05-29T09:09:29;20.50;99.90
18888;DHT22;9576;47.792;9.628;2023-05-29T09:12:32;20.70;99.90
18888;DHT22;9576;47.792;9.628;2023-05-29T09:15:34;20.70;99.90
18888;DHT22;9576;47.792;9.628;2023-05-29T09:18:38;20.80;99.90
18888;DHT22;9576;47.792;9.628;2023-05-29T09:21:41;20.90;99.90
18888;DHT22;9576;47.792;9.628;2023-05-29T09:24:47;20.90;99.90
18888;DHT22;9576;47.792;9.628;2023-05-29T09:27:51;21.00;99.90
18888;DHT22;9576;47.792;9.628;2023-05-29T09:30:53;21.10;99.90
18888;DHT22;9576;47.792;9.628;2023-05-29T09:34:01;21.20;99.90
18888;DHT22;9576;47.792;9.628;2023-05-29T09:37:05;21.40;99.90
18888;DHT22;9576;47.792;9.628;2023-05-29T09:40:11;21.50;99.90
18888;DHT22;9576;47.792;9.628;2023-05-29T09:43:14;21.70;99.90
18888;DHT22;9576;47.792;9.628;2023-05-29T09:46:17;21.80;99.90
18888;DHT22;9576;47.792;9.628;2023-05-29T09:49:22;21.80;99.90
18888;DHT22;9576;47.792;9.628;2023-05-29T09:52:24;22.00;99.90
18888;DHT22;9576;47.792;9.628;2023-05-29T09:55:27;22.10;99.90
18888;DHT22;9576;47.792;9.628;2023-05-29T09:58:32;22.20;99.90
18888;DHT22;9576;47.792;9.628;2023-05-29T10:01:36;22.30;99.90
18888;DHT22;9576;47.792;9.628;2023-05-29T10:04:39;22.30;99.90
18888;DHT22;9576;47.792;9.628;2023-05-29T10:07:44;22.30;99.90
18888;DHT22;9576;47.792;9.628;2023-05-29T10:10:52;22.30;99.90
18888;DHT22;9576;47.792;9.628;2023-05-29T10:13:57;22.40;99.90
18888;DHT22;9576;47.792;9.628;2023-05-29T10:17:02;22.50;99.90
18888;DHT22;9576;47.792;9.628;2023-05-29T10:20:13;22.60;99.90
18888;DHT22;9576;47.792;9.628;2023-05-29T10:23:17;22.70;99.90
18888;DHT22;9576;47.792;9.628;2023-05-29T10:26:25;23.00;99.90
18888;DHT22;9576;47.792;9.628;2023-05-29T10:29:29;23.30;99.90
18888;DHT22;9576;47.792;9.628;2023-05-29T10:32:37;23.50;99.90
18888;DHT22;9576;47.792;9.628;2023-05-29T10:35:46;23.50;99.90
18888;DHT22;9576;47.792;9.628;2023-05-29T10:38:49;23.50;99.90
18888;DHT22;9576;47.792;9.628;2023-05-29T10:41:51;23.50;99.90
18888;DHT22;9576;47.792;9.628;2023-05-29T10:44:54;23.80;99.90
18888;DHT22;9576;47.792;9.628;2023-05-29T10:47:56;23.90;99.90
18888;DHT22;9576;47.792;9.628;2023-05-29T10:51:27;24.00;99.10
18888;DHT22;9576;47.792;9.628;2023-05-29T10:54:40;23.90;99.50
18888;DHT22;9576;47.792;9.628;2023-05-29T10:57:47;24.00;98.70
18888;DHT22;9576;47.792;9.628;2023-05-29T11:00:50;24.30;99.90
18888;DHT22;9576;47.792;9.628;2023-05-29T11:04:08;24.40;98.60
18888;DHT22;9576;47.792;9.628;2023-05-29T11:07:34;24.30;97.10
18888;DHT22;9576;47.792;9.628;2023-05-29T11:10:56;24.30;98.70
18888;DHT22;9576;47.792;9.628;2023-05-29T11:14:02;24.30;97.70
18888;DHT22;9576;47.792;9.628;2023-05-29T11:17:06;24.50;99.40
18888;DHT22;9576;47.792;9.628;2023-05-29T11:20:12;24.70;99.90
18888;DHT22;9576;47.792;9.628;2023-05-29T11:23:19;24.70;96.90
18888;DHT22;9576;47.792;9.628;2023-05-29T11:26:26;25.00;99.90
18888;DHT22;9576;47.792;9.628;2023-05-29T11:29:29;25.30;98.40
18888;DHT22;9576;47.792;9.628;2023-05-29T11:32:33;25.40;99.70
18888;DHT22;9576;47.792;9.628;2023-05-29T11:35:38;25.60;99.90
18888;DHT22;9576;47.792;9.628;2023-05-29T11:38:42;25.90;99.20
18888;DHT22;9576;47.792;9.628;2023-05-29T11:41:44;26.10;96.40
18888;DHT22;9576;47.792;9.628;2023-05-29T11:44:46;26.30;99.60
18888;DHT22;9576;47.792;9.628;2023-05-29T11:47:55;26.50;98.60
18888;DHT22;9576;47.792;9.628;2023-05-29T11:50:57;26.90;97.50
18888;DHT22;9576;47.792;9.628;2023-05-29T11:54:00;27.20;99.90
18888;DHT22;9576;47.792;9.628;2023-05-29T11:57:02;27.40;98.80
18888;DHT22;9576;47.792;9.628;2023-05-29T12:00:08;27.50;93.90
18888;DHT22;9576;47.792;9.628;2023-05-29T12:03:11;27.40;92.90
18888;DHT22;9576;47.792;9.628;2023-05-29T12:06:13;27.50;92.80
18888;DHT22;9576;47.792;9.628;2023-05-29T12:09:26;27.50;93.60
18888;DHT22;9576;47.792;9.628;2023-05-29T12:12:28;27.80;99.40
18888;DHT22;9576;47.792;9.628;2023-05-29T12:15:31;28.00;93.00
18888;DHT22;9576;47.792;9.628;2023-05-29T12:18:33;27.90;92.30
18888;DHT22;9576;47.792;9.628;2023-05-29T12:21:35;27.90;90.10
18888;DHT22;9576;47.792;9.628;2023-05-29T12:24:39;27.80;91.50
18888;DHT22;9576;47.792;9.628;2023-05-29T12:27:42;27.90;93.10
18888;DHT22;9576;47.792;9.628;2023-05-29T12:30:47;27.90;91.70
18888;DHT22;9576;47.792;9.628;2023-05-29T12:33:50;28.00;92.30
18888;DHT22;9576;47.792;9.628;2023-05-29T12:36:52;28.20;93.20
18888;DHT22;9576;47.792;9.628;2023-05-29T12:40:13;28.50;92.20
18888;DHT22;9576;47.792;9.628;2023-05-29T12:43:16;28.90;94.00
18888;DHT22;9576;47.792;9.628;2023-05-29T12:46:18;29.10;93.40
18888;DHT22;9576;47.792;9.628;2023-05-29T12:49:20;29.30;96.80
18888;DHT22;9576;47.792;9.628;2023-05-29T12:52:27;29.30;91.30
18888;DHT22;9576;47.792;9.628;2023-05-29T12:55:32;29.60;95.40
18888;DHT22;9576;47.792;9.628;2023-05-29T12:58:37;29.80;90.70
18888;DHT22;9576;47.792;9.628;2023-05-29T13:01:39;29.50;90.00
18888;DHT22;9576;47.792;9.628;2023-05-29T13:04:41;29.50;91.10
18888;DHT22;9576;47.792;9.628;2023-05-29T13:07:43;29.60;94.90
18888;DHT22;9576;47.792;9.628;2023-05-29T13:10:46;29.50;88.50
18888;DHT22;9576;47.792;9.628;2023-05-29T13:13:48;29.30;91.00
18888;DHT22;9576;47.792;9.628;2023-05-29T13:16:50;29.60;89.70
18888;DHT22;9576;47.792;9.628;2023-05-29T13:19:52;30.00;91.70
18888;DHT22;9576;47.792;9.628;2023-05-29T13:22:54;30.00;91.50
18888;DHT22;9576;47.792;9.628;2023-05-29T13:25:57;30.00;92.40
18888;DHT22;9576;47.792;9.628;2023-05-29T13:28:59;30.00;88.50
18888;DHT22;9576;47.792;9.628;2023-05-29T13:32:02;30.00;88.20
18888;DHT22;9576;47.792;9.628;2023-05-29T13:35:05;29.80;87.50
18888;DHT22;9576;47.792;9.628;2023-05-29T13:38:07;29.70;90.10
18888;DHT22;9576;47.792;9.628;2023-05-29T13:41:10;29.80;87.20
18888;DHT22;9576;47.792;9.628;2023-05-29T13:44:12;30.00;90.20
18888;DHT22;9576;47.792;9.628;2023-05-29T13:47:14;30.30;86.40
18888;DHT22;9576;47.792;9.628;2023-05-29T13:50:17;30.80;89.20
18888;DHT22;9576;47.792;9.628;2023-05-29T13:53:18;30.80;80.90
18888;DHT22;9576;47.792;9.628;2023-05-29T13:56:22;30.70;90.00
18888;DHT22;9576;47.792;9.628;2023-05-29T13:59:27;31.10;89.30
18888;DHT22;9576;47.792;9.628;2023-05-29T14:02:29;31.60;84.10
18888;DHT22;9576;47.792;9.628;2023-05-29T14:05:31;31.80;85.80
18888;DHT22;9576;47.792;9.628;2023-05-29T14:08:33;31.70;87.10
18888;DHT22;9576;47.792;9.628;2023-05-29T14:11:36;31.70;83.90
18888;DHT22;9576;47.792;9.628;2023-05-29T14:14:38;32.00;93.30
18888;DHT22;9576;47.792;9.628;2023-05-29T14:17:41;32.30;90.20
18888;DHT22;9576;47.792;9.628;2023-05-29T14:20:42;32.70;92.20
18888;DHT22;9576;47.792;9.628;2023-05-29T14:23:48;33.10;93.00
18888;DHT22;9576;47.792;9.628;2023-05-29T14:26:51;33.40;82.20
18888;DHT22;9576;47.792;9.628;2023-05-29T14:29:53;33.20;83.30
18888;DHT22;9576;47.792;9.628;2023-05-29T14:32:55;33.40;84.80
18888;DHT22;9576;47.792;9.628;2023-05-29T14:35:57;33.40;82.30
18888;DHT22;9576;47.792;9.628;2023-05-29T14:38:59;33.00;78.50
18888;DHT22;9576;47.792;9.628;2023-05-29T14:42:03;33.00;90.10
18888;DHT22;9576;47.792;9.628;2023-05-29T14:45:07;33.70;80.00
18888;DHT22;9576;47.792;9.628;2023-05-29T14:48:09;33.40;79.60
18888;DHT22;9576;47.792;9.628;2023-05-29T14:51:11;33.40;77.20
18888;DHT22;9576;47.792;9.628;2023-05-29T14:54:13;33.50;78.50
18888;DHT22;9576;47.792;9.628;2023-05-29T14:57:17;33.90;81.90
18888;DHT22;9576;47.792;9.628;2023-05-29T15:00:19;34.30;78.80
18888;DHT22;9576;47.792;9.628;2023-05-29T15:03:21;34.70;78.60
18888;DHT22;9576;47.792;9.628;2023-05-29T15:06:26;34.80;79.20
18888;DHT22;9576;47.792;9.628;2023-05-29T15:09:29;34.40;74.60
18888;DHT22;9576;47.792;9.628;2023-05-29T15:12:32;34.20;78.30
18888;DHT22;9576;47.792;9.628;2023-05-29T15:15:34;34.50;81.50
18888;DHT22;9576;47.792;9.628;2023-05-29T15:18:36;34.50;78.70
18888;DHT22;9576;47.792;9.628;2023-05-29T15:21:38;34.50;82.40
18888;DHT22;9576;47.792;9.628;2023-05-29T15:24:40;35.10;74.90
18888;DHT22;9576;47.792;9.628;2023-05-29T15:27:43;35.40;78.10
18888;DHT22;9576;47.792;9.628;2023-05-29T15:30:45;35.80;73.50
18888;DHT22;9576;47.792;9.628;2023-05-29T15:33:47;35.80;74.80
18888;DHT22;9576;47.792;9.628;2023-05-29T15:36:49;35.90;76.40
18888;DHT22;9576;47.792;9.628;2023-05-29T15:39:51;35.70;72.90
18888;DHT22;9576;47.792;9.628;2023-05-29T15:42:55;35.50;78.00
18888;DHT22;9576;47.792;9.628;2023-05-29T15:45:57;35.80;71.80
18888;DHT22;9576;47.792;9.628;2023-05-29T15:48:59;36.10;71.70
18888;DHT22;9576;47.792;9.628;2023-05-29T15:52:01;36.30;75.40
18888;DHT22;9576;47.792;9.628;2023-05-29T15:55:03;36.10;71.10
18888;DHT22;9576;47.792;9.628;2023-05-29T15:58:07;36.30;71.30
18888;DHT22;9576;47.792;9.628;2023-05-29T16:01:09;36.60;70.50
18888;DHT22;9576;47.792;9.628;2023-05-29T16:04:11;36.20;74.90
18888;DHT22;9576;47.792;9.628;2023-05-29T16:07:14;36.10;75.00
18888;DHT22;9576;47.792;9.628;2023-05-29T16:10:16;35.90;69.40
18888;DHT22;9576;47.792;9.628;2023-05-29T16:13:19;35.40;73.50
18888;DHT22;9576;47.792;9.628;2023-05-29T16:16:21;34.80;71.60
18888;DHT22;9576;47.792;9.628;2023-05-29T16:19:23;34.90;70.90
18888;DHT22;9576;47.792;9.628;2023-05-29T16:22:25;35.50;74.20
18888;DHT22;9576;47.792;9.628;2023-05-29T16:25:27;36.30;70.80
18888;DHT22;9576;47.792;9.628;2023-05-29T16:28:31;36.40;70.40
18888;DHT22;9576;47.792;9.628;2023-05-29T16:31:33;35.60;68.50
18888;DHT22;9576;47.792;9.628;2023-05-29T16:34:35;35.10;71.00
18888;DHT22;9576;47.792;9.628;2023-05-29T16:37:37;35.10;71.60
18888;DHT22;9576;47.792;9.628;2023-05-29T16:40:39;35.40;71.50
18888;DHT22;9576;47.792;9.628;2023-05-29T16:43:42;35.90;69.20
18888;DHT22;9576;47.792;9.628;2023-05-29T16:46:44;36.00;67.00
18888;DHT22;9576;47.792;9.628;2023-05-29T16:49:46;36.10;72.10
18888;DHT22;9576;47.792;9.628;2023-05-29T16:52:48;35.70;66.70
18888;DHT22;9576;47.792;9.628;2023-05-29T16:55:50;35.40;66.70
18888;DHT22;9576;47.792;9.628;2023-05-29T16:58:53;34.70;67.20
18888;DHT22;9576;47.792;9.628;2023-05-29T17:01:55;34.20;66.60
18888;DHT22;9576;47.792;9.628;2023-05-29T17:04:57;33.60;68.70
18888;DHT22;9576;47.792;9.628;2023-05-29T17:07:59;34.30;70.80
18888;DHT22;9576;47.792;9.628;2023-05-29T17:11:01;34.50;70.20
18888;DHT22;9576;47.792;9.628;2023-05-29T17:14:05;34.40;69.50
18888;DHT22;9576;47.792;9.628;2023-05-29T17:17:07;35.10;70.30
18888;DHT22;9576;47.792;9.628;2023-05-29T17:20:09;34.70;68.60
18888;DHT22;9576;47.792;9.628;2023-05-29T17:23:11;34.40;69.10
18888;DHT22;9576;47.792;9.628;2023-05-29T17:26:14;34.40;68.30
18888;DHT22;9576;47.792;9.628;2023-05-29T17:29:18;33.40;71.10
18888;DHT22;9576;47.792;9.628;2023-05-29T17:32:20;32.10;69.90
18888;DHT22;9576;47.792;9.628;2023-05-29T17:35:22;30.30;74.30
18888;DHT22;9576;47.792;9.628;2023-05-29T17:38:24;29.00;76.40
18888;DHT22;9576;47.792;9.628;2023-05-29T17:41:26;27.90;78.40
18888;DHT22;9576;47.792;9.628;2023-05-29T17:44:29;27.10;81.00
18888;DHT22;9576;47.792;9.628;2023-05-29T17:47:31;26.60;79.50
18888;DHT22;9576;47.792;9.628;2023-05-29T17:50:34;26.10;82.00
18888;DHT22;9576;47.792;9.628;2023-05-29T17:53:37;25.70;85.20
18888;DHT22;9576;47.792;9.628;2023-05-29T17:56:39;25.40;84.40
18888;DHT22;9576;47.792;9.628;2023-05-29T17:59:42;25.00;86.50
18888;DHT22;9576;47.792;9.628;2023-05-29T18:02:44;24.60;84.90
18888;DHT22;9576;47.792;9.628;2023-05-29T18:05:46;24.40;88.00
18888;DHT22;9576;47.792;9.628;2023-05-29T18:08:48;24.20;89.70
18888;DHT22;9576;47.792;9.628;2023-05-29T18:11:50;24.00;89.40
18888;DHT22;9576;47.792;9.628;2023-05-29T18:14:53;23.80;89.10
18888;DHT22;9576;47.792;9.628;2023-05-29T18:17:55;23.60;90.20
18888;DHT22;9576;47.792;9.628;2023-05-29T18:20:57;23.30;89.50
18888;DHT22;9576;47.792;9.628;2023-05-29T18:23:59;23.10;90.50
18888;DHT22;9576;47.792;9.628;2023-05-29T18:27:01;22.90;90.70
18888;DHT22;9576;47.792;9.628;2023-05-29T18:30:06;22.70;90.90
18888;DHT22;9576;47.792;9.628;2023-05-29T18:33:08;22.50;91.30
18888;DHT22;9576;47.792;9.628;2023-05-29T18:36:11;22.40;91.60
18888;DHT22;9576;47.792;9.628;2023-05-29T18:39:13;22.30;91.60
18888;DHT22;9576;47.792;9.628;2023-05-29T18:42:15;22.20;92.20
18888;DHT22;9576;47.792;9.628;2023-05-29T18:45:19;22.20;92.50
18888;DHT22;9576;47.792;9.628;2023-05-29T18:48:21;22.00;93.10
18888;DHT22;9576;47.792;9.628;2023-05-29T18:51:22;21.90;92.60
18888;DHT22;9576;47.792;9.628;2023-05-29T18:54:24;21.80;92.40
18888;DHT22;9576;47.792;9.628;2023-05-29T18:57:26;21.60;92.10
18888;DHT22;9576;47.792;9.628;2023-05-29T19:00:30;21.40;92.90
18888;DHT22;9576;47.792;9.628;2023-05-29T19:03:33;21.20;93.10
18888;DHT22;9576;47.792;9.628;2023-05-29T19:06:35;21.10;93.40
18888;DHT22;9576;47.792;9.628;2023-05-29T19:09:37;20.90;93.60
18888;DHT22;9576;47.792;9.628;2023-05-29T19:12:39;20.80;94.50
18888;DHT22;9576;47.792;9.628;2023-05-29T19:15:42;20.60;94.50
18888;DHT22;9576;47.792;9.628;2023-05-29T19:18:44;20.50;95.20
18888;DHT22;9576;47.792;9.628;2023-05-29T19:21:46;20.30;95.00
18888;DHT22;9576;47.792;9.628;2023-05-29T19:24:48;20.30;94.80
18888;DHT22;9576;47.792;9.628;2023-05-29T19:27:49;20.00;95.20
18888;DHT22;9576;47.792;9.628;2023-05-29T19:30:55;19.90;94.60
18888;DHT22;9576;47.792;9.628;2023-05-29T19:33:57;19.80;95.80